Aviation Digital Data Service (ADDS)

Output produced by TAFs form (0537 UTC 20 September 2017)
found at http://www.aviationweather.gov/adds/tafs/
 
KSAN 200520Z 2006/2112 17003KT P6SM OVC021 
     FM201900 20010KT P6SM SCT028 
     FM210200 18006KT P6SM OVC028